Terminal Aerodrome Forecast
Issued by NWS

Home | Current Version | Previous Version | Text Only | Print | Product List | Glossary On
Versions: 1 2 3 4 5 6 7 8 9 10 11 12
885
FTPA31 PHFO 261120
TAFHOG
TAF
PHOG 261120Z 2612/2712 VRB05KT P6SM FEW035 FEW050
     FM262000 06017G25KT P6SM FEW030 SCT050
     FM270500 06010G15KT P6SM FEW030 SCT050
     FM270700 07007KT P6SM FEW030
      AMD LTD TO VIS AND WIND TIL 261600=

USA.gov is the U.S. government's official web portal to all federal, state and local government web resources and services.